sensor_id;sensor_type;location;lat;lon;timestamp;P1;durP1;ratioP1;P2;durP2;ratioP2
7539;SDS011;3811;49.006;12.076;2023-04-30T00:02:19;5.57;;;5.07;;
7539;SDS011;3811;49.006;12.076;2023-04-30T00:04:47;5.63;;;5.13;;
7539;SDS011;3811;49.006;12.076;2023-04-30T00:07:14;8.67;;;5.17;;
7539;SDS011;3811;49.006;12.076;2023-04-30T00:09:41;6.10;;;5.33;;
7539;SDS011;3811;49.006;12.076;2023-04-30T00:12:08;5.77;;;5.17;;
7539;SDS011;3811;49.006;12.076;2023-04-30T00:14:37;5.33;;;4.83;;
7539;SDS011;3811;49.006;12.076;2023-04-30T00:17:04;5.70;;;5.20;;
7539;SDS011;3811;49.006;12.076;2023-04-30T00:19:31;7.93;;;5.47;;
7539;SDS011;3811;49.006;12.076;2023-04-30T00:21:58;6.80;;;5.60;;
7539;SDS011;3811;49.006;12.076;2023-04-30T00:24:26;7.17;;;5.07;;
7539;SDS011;3811;49.006;12.076;2023-04-30T00:26:53;6.37;;;5.30;;
7539;SDS011;3811;49.006;12.076;2023-04-30T00:29:21;5.63;;;5.13;;
7539;SDS011;3811;49.006;12.076;2023-04-30T00:31:49;5.60;;;5.10;;
7539;SDS011;3811;49.006;12.076;2023-04-30T00:34:16;5.67;;;5.17;;
7539;SDS011;3811;49.006;12.076;2023-04-30T00:36:44;8.20;;;5.53;;
7539;SDS011;3811;49.006;12.076;2023-04-30T00:39:11;5.60;;;5.10;;
7539;SDS011;3811;49.006;12.076;2023-04-30T00:41:39;6.03;;;5.43;;
7539;SDS011;3811;49.006;12.076;2023-04-30T00:44:07;6.00;;;5.50;;
7539;SDS011;3811;49.006;12.076;2023-04-30T00:46:34;5.90;;;5.37;;
7539;SDS011;3811;49.006;12.076;2023-04-30T00:49:03;5.03;;;4.57;;
7539;SDS011;3811;49.006;12.076;2023-04-30T00:51:31;5.30;;;4.80;;
7539;SDS011;3811;49.006;12.076;2023-04-30T00:53:59;6.03;;;5.00;;
7539;SDS011;3811;49.006;12.076;2023-04-30T00:56:27;6.13;;;5.30;;
7539;SDS011;3811;49.006;12.076;2023-04-30T00:58:55;4.83;;;4.43;;
7539;SDS011;3811;49.006;12.076;2023-04-30T01:01:22;5.43;;;4.93;;
7539;SDS011;3811;49.006;12.076;2023-04-30T01:03:50;5.43;;;4.93;;
7539;SDS011;3811;49.006;12.076;2023-04-30T01:06:19;5.73;;;5.23;;
7539;SDS011;3811;49.006;12.076;2023-04-30T01:08:47;5.77;;;5.27;;
7539;SDS011;3811;49.006;12.076;2023-04-30T01:11:20;5.63;;;5.10;;
7539;SDS011;3811;49.006;12.076;2023-04-30T01:13:54;6.80;;;5.13;;
7539;SDS011;3811;49.006;12.076;2023-04-30T01:16:26;6.73;;;5.23;;
7539;SDS011;3811;49.006;12.076;2023-04-30T01:18:58;5.73;;;5.23;;
7539;SDS011;3811;49.006;12.076;2023-04-30T01:21:37;5.60;;;5.10;;
7539;SDS011;3811;49.006;12.076;2023-04-30T01:27:05;6.03;;;5.40;;
7539;SDS011;3811;49.006;12.076;2023-04-30T01:29:35;6.37;;;5.77;;
7539;SDS011;3811;49.006;12.076;2023-04-30T01:32:02;7.53;;;5.43;;
7539;SDS011;3811;49.006;12.076;2023-04-30T01:34:29;5.80;;;5.30;;
7539;SDS011;3811;49.006;12.076;2023-04-30T01:37:05;6.67;;;6.07;;
7539;SDS011;3811;49.006;12.076;2023-04-30T01:39:41;5.73;;;5.23;;
7539;SDS011;3811;49.006;12.076;2023-04-30T01:42:29;5.97;;;5.37;;
7539;SDS011;3811;49.006;12.076;2023-04-30T01:45:14;6.03;;;5.43;;
7539;SDS011;3811;49.006;12.076;2023-04-30T01:47:49;5.93;;;5.43;;
7539;SDS011;3811;49.006;12.076;2023-04-30T01:50:24;6.70;;;6.00;;
7539;SDS011;3811;49.006;12.076;2023-04-30T01:52:57;6.97;;;5.73;;
7539;SDS011;3811;49.006;12.076;2023-04-30T01:55:26;6.03;;;5.40;;
7539;SDS011;3811;49.006;12.076;2023-04-30T01:57:56;5.90;;;5.30;;
7539;SDS011;3811;49.006;12.076;2023-04-30T02:00:27;6.87;;;6.20;;
7539;SDS011;3811;49.006;12.076;2023-04-30T02:02:55;6.37;;;5.80;;
7539;SDS011;3811;49.006;12.076;2023-04-30T02:05:23;6.43;;;5.83;;
7539;SDS011;3811;49.006;12.076;2023-04-30T02:07:50;6.50;;;5.30;;
7539;SDS011;3811;49.006;12.076;2023-04-30T02:10:18;6.70;;;6.10;;
7539;SDS011;3811;49.006;12.076;2023-04-30T02:12:46;6.07;;;5.47;;
7539;SDS011;3811;49.006;12.076;2023-04-30T02:15:14;6.60;;;6.00;;
7539;SDS011;3811;49.006;12.076;2023-04-30T02:17:43;7.23;;;6.00;;
7539;SDS011;3811;49.006;12.076;2023-04-30T02:20:10;6.93;;;6.03;;
7539;SDS011;3811;49.006;12.076;2023-04-30T02:22:37;6.23;;;5.67;;
7539;SDS011;3811;49.006;12.076;2023-04-30T02:25:04;7.17;;;5.90;;
7539;SDS011;3811;49.006;12.076;2023-04-30T02:27:32;6.50;;;5.90;;
7539;SDS011;3811;49.006;12.076;2023-04-30T02:30:00;6.03;;;5.43;;
7539;SDS011;3811;49.006;12.076;2023-04-30T02:32:27;6.70;;;6.07;;
7539;SDS011;3811;49.006;12.076;2023-04-30T02:34:56;6.50;;;5.90;;
7539;SDS011;3811;49.006;12.076;2023-04-30T02:37:23;6.50;;;5.90;;
7539;SDS011;3811;49.006;12.076;2023-04-30T02:39:51;6.07;;;5.57;;
7539;SDS011;3811;49.006;12.076;2023-04-30T02:42:18;7.00;;;6.30;;
7539;SDS011;3811;49.006;12.076;2023-04-30T02:44:45;6.83;;;6.23;;
7539;SDS011;3811;49.006;12.076;2023-04-30T02:47:12;6.97;;;6.07;;
7539;SDS011;3811;49.006;12.076;2023-04-30T02:49:40;6.73;;;6.13;;
7539;SDS011;3811;49.006;12.076;2023-04-30T02:52:08;8.83;;;6.10;;
7539;SDS011;3811;49.006;12.076;2023-04-30T02:54:36;8.47;;;6.67;;
7539;SDS011;3811;49.006;12.076;2023-04-30T02:57:03;7.27;;;6.17;;
7539;SDS011;3811;49.006;12.076;2023-04-30T02:59:31;7.27;;;6.57;;
7539;SDS011;3811;49.006;12.076;2023-04-30T03:01:58;7.73;;;6.60;;
7539;SDS011;3811;49.006;12.076;2023-04-30T03:04:25;7.23;;;6.37;;
7539;SDS011;3811;49.006;12.076;2023-04-30T03:06:52;7.47;;;6.60;;
7539;SDS011;3811;49.006;12.076;2023-04-30T03:09:21;8.40;;;6.50;;
7539;SDS011;3811;49.006;12.076;2023-04-30T03:11:48;7.77;;;7.07;;
7539;SDS011;3811;49.006;12.076;2023-04-30T03:14:16;6.90;;;6.20;;
7539;SDS011;3811;49.006;12.076;2023-04-30T03:16:43;8.67;;;7.63;;
7539;SDS011;3811;49.006;12.076;2023-04-30T03:19:10;7.67;;;6.90;;
7539;SDS011;3811;49.006;12.076;2023-04-30T03:21:38;9.67;;;7.50;;
7539;SDS011;3811;49.006;12.076;2023-04-30T03:24:05;7.27;;;6.57;;
7539;SDS011;3811;49.006;12.076;2023-04-30T03:26:33;7.47;;;6.67;;
7539;SDS011;3811;49.006;12.076;2023-04-30T03:29:01;8.47;;;7.63;;
7539;SDS011;3811;49.006;12.076;2023-04-30T03:31:28;8.07;;;7.17;;
7539;SDS011;3811;49.006;12.076;2023-04-30T03:33:55;8.20;;;7.40;;
7539;SDS011;3811;49.006;12.076;2023-04-30T03:36:23;8.20;;;7.40;;
7539;SDS011;3811;49.006;12.076;2023-04-30T03:38:51;8.03;;;7.23;;
7539;SDS011;3811;49.006;12.076;2023-04-30T03:41:18;8.07;;;7.30;;
7539;SDS011;3811;49.006;12.076;2023-04-30T03:43:47;8.47;;;7.40;;
7539;SDS011;3811;49.006;12.076;2023-04-30T03:46:14;8.03;;;7.33;;
7539;SDS011;3811;49.006;12.076;2023-04-30T03:48:44;8.63;;;7.73;;
7539;SDS011;3811;49.006;12.076;2023-04-30T03:51:12;8.50;;;7.70;;
7539;SDS011;3811;49.006;12.076;2023-04-30T03:53:40;9.77;;;8.77;;
7539;SDS011;3811;49.006;12.076;2023-04-30T03:56:13;8.13;;;7.33;;
7539;SDS011;3811;49.006;12.076;2023-04-30T03:58:41;8.80;;;7.90;;
7539;SDS011;3811;49.006;12.076;2023-04-30T04:01:09;12.30;;;7.87;;
7539;SDS011;3811;49.006;12.076;2023-04-30T04:03:37;8.47;;;7.67;;
7539;SDS011;3811;49.006;12.076;2023-04-30T04:06:04;9.63;;;8.23;;
7539;SDS011;3811;49.006;12.076;2023-04-30T04:08:31;9.47;;;8.37;;
7539;SDS011;3811;49.006;12.076;2023-04-30T04:10:58;9.27;;;8.30;;
7539;SDS011;3811;49.006;12.076;2023-04-30T04:13:25;8.83;;;7.97;;
7539;SDS011;3811;49.006;12.076;2023-04-30T04:15:53;10.10;;;8.27;;
7539;SDS011;3811;49.006;12.076;2023-04-30T04:18:21;10.73;;;8.10;;
7539;SDS011;3811;49.006;12.076;2023-04-30T04:20:49;8.83;;;8.03;;
7539;SDS011;3811;49.006;12.076;2023-04-30T04:23:19;9.50;;;8.50;;
7539;SDS011;3811;49.006;12.076;2023-04-30T04:25:46;10.10;;;9.10;;
7539;SDS011;3811;49.006;12.076;2023-04-30T04:28:15;9.47;;;8.27;;
7539;SDS011;3811;49.006;12.076;2023-04-30T04:30:42;9.97;;;8.97;;
7539;SDS011;3811;49.006;12.076;2023-04-30T04:33:09;8.70;;;7.90;;
7539;SDS011;3811;49.006;12.076;2023-04-30T04:35:38;10.40;;;8.77;;
7539;SDS011;3811;49.006;12.076;2023-04-30T04:38:05;9.60;;;8.60;;
7539;SDS011;3811;49.006;12.076;2023-04-30T04:40:33;11.70;;;8.27;;
7539;SDS011;3811;49.006;12.076;2023-04-30T04:43:01;11.13;;;9.27;;
7539;SDS011;3811;49.006;12.076;2023-04-30T04:45:28;12.93;;;9.90;;
7539;SDS011;3811;49.006;12.076;2023-04-30T04:47:57;11.00;;;9.17;;
7539;SDS011;3811;49.006;12.076;2023-04-30T04:50:26;11.90;;;9.57;;
7539;SDS011;3811;49.006;12.076;2023-04-30T04:52:54;10.67;;;9.57;;
7539;SDS011;3811;49.006;12.076;2023-04-30T04:55:22;11.27;;;9.73;;
7539;SDS011;3811;49.006;12.076;2023-04-30T04:57:50;9.67;;;8.77;;
7539;SDS011;3811;49.006;12.076;2023-04-30T05:00:23;11.60;;;10.20;;
7539;SDS011;3811;49.006;12.076;2023-04-30T05:02:58;10.53;;;9.43;;
7539;SDS011;3811;49.006;12.076;2023-04-30T05:05:25;9.67;;;8.67;;
7539;SDS011;3811;49.006;12.076;2023-04-30T05:07:52;12.80;;;9.57;;
7539;SDS011;3811;49.006;12.076;2023-04-30T05:10:21;9.17;;;8.37;;
7539;SDS011;3811;49.006;12.076;2023-04-30T05:12:48;10.17;;;9.17;;
7539;SDS011;3811;49.006;12.076;2023-04-30T05:15:16;9.93;;;8.77;;
7539;SDS011;3811;49.006;12.076;2023-04-30T05:17:44;11.63;;;9.47;;
7539;SDS011;3811;49.006;12.076;2023-04-30T05:20:11;10.20;;;8.80;;
7539;SDS011;3811;49.006;12.076;2023-04-30T05:22:38;9.90;;;8.30;;
7539;SDS011;3811;49.006;12.076;2023-04-30T05:25:06;9.13;;;8.23;;
7539;SDS011;3811;49.006;12.076;2023-04-30T05:27:35;9.30;;;8.40;;
7539;SDS011;3811;49.006;12.076;2023-04-30T05:30:02;10.40;;;8.37;;
7539;SDS011;3811;49.006;12.076;2023-04-30T05:32:30;10.10;;;9.10;;
7539;SDS011;3811;49.006;12.076;2023-04-30T05:35:00;10.57;;;9.47;;
7539;SDS011;3811;49.006;12.076;2023-04-30T05:37:27;9.70;;;8.80;;
7539;SDS011;3811;49.006;12.076;2023-04-30T05:39:54;8.97;;;8.00;;
7539;SDS011;3811;49.006;12.076;2023-04-30T05:42:22;9.53;;;8.50;;
7539;SDS011;3811;49.006;12.076;2023-04-30T05:44:50;9.47;;;8.57;;
7539;SDS011;3811;49.006;12.076;2023-04-30T05:47:24;9.73;;;8.73;;
7539;SDS011;3811;49.006;12.076;2023-04-30T05:49:55;10.13;;;9.10;;
7539;SDS011;3811;49.006;12.076;2023-04-30T05:52:22;10.93;;;9.30;;
7539;SDS011;3811;49.006;12.076;2023-04-30T05:54:50;11.87;;;9.10;;
7539;SDS011;3811;49.006;12.076;2023-04-30T05:57:18;10.53;;;9.40;;
7539;SDS011;3811;49.006;12.076;2023-04-30T05:59:45;10.17;;;9.17;;
7539;SDS011;3811;49.006;12.076;2023-04-30T06:02:14;11.10;;;9.47;;
7539;SDS011;3811;49.006;12.076;2023-04-30T06:04:41;10.97;;;8.97;;
7539;SDS011;3811;49.006;12.076;2023-04-30T06:07:09;10.90;;;8.97;;
7539;SDS011;3811;49.006;12.076;2023-04-30T06:09:37;10.57;;;9.50;;
7539;SDS011;3811;49.006;12.076;2023-04-30T06:12:04;11.37;;;10.20;;
7539;SDS011;3811;49.006;12.076;2023-04-30T06:14:31;10.10;;;9.10;;
7539;SDS011;3811;49.006;12.076;2023-04-30T06:16:59;15.20;;;9.70;;
7539;SDS011;3811;49.006;12.076;2023-04-30T06:19:27;10.10;;;9.00;;
7539;SDS011;3811;49.006;12.076;2023-04-30T06:21:54;11.43;;;9.10;;
7539;SDS011;3811;49.006;12.076;2023-04-30T06:24:22;9.97;;;8.97;;
7539;SDS011;3811;49.006;12.076;2023-04-30T06:26:51;10.07;;;9.07;;
7539;SDS011;3811;49.006;12.076;2023-04-30T06:29:18;17.27;;;10.47;;
7539;SDS011;3811;49.006;12.076;2023-04-30T06:31:48;10.63;;;9.53;;
7539;SDS011;3811;49.006;12.076;2023-04-30T06:34:17;9.70;;;8.70;;
7539;SDS011;3811;49.006;12.076;2023-04-30T06:36:46;12.93;;;9.57;;
7539;SDS011;3811;49.006;12.076;2023-04-30T06:39:14;10.37;;;9.30;;
7539;SDS011;3811;49.006;12.076;2023-04-30T06:41:41;10.33;;;9.33;;
7539;SDS011;3811;49.006;12.076;2023-04-30T06:44:09;14.33;;;9.33;;
7539;SDS011;3811;49.006;12.076;2023-04-30T06:46:37;12.17;;;10.20;;
7539;SDS011;3811;49.006;12.076;2023-04-30T06:49:05;10.23;;;9.13;;
7539;SDS011;3811;49.006;12.076;2023-04-30T06:51:32;10.70;;;9.47;;
7539;SDS011;3811;49.006;12.076;2023-04-30T06:54:01;9.73;;;8.67;;
7539;SDS011;3811;49.006;12.076;2023-04-30T06:56:28;12.57;;;8.70;;
7539;SDS011;3811;49.006;12.076;2023-04-30T06:58:55;9.73;;;8.80;;
7539;SDS011;3811;49.006;12.076;2023-04-30T07:01:23;9.23;;;8.27;;
7539;SDS011;3811;49.006;12.076;2023-04-30T07:03:50;10.37;;;8.93;;
7539;SDS011;3811;49.006;12.076;2023-04-30T07:06:18;8.87;;;8.07;;
7539;SDS011;3811;49.006;12.076;2023-04-30T07:08:46;9.67;;;8.77;;
7539;SDS011;3811;49.006;12.076;2023-04-30T07:11:14;9.60;;;8.50;;
7539;SDS011;3811;49.006;12.076;2023-04-30T07:13:42;9.10;;;8.07;;
7539;SDS011;3811;49.006;12.076;2023-04-30T07:16:09;9.40;;;7.73;;
7539;SDS011;3811;49.006;12.076;2023-04-30T07:18:37;8.73;;;7.33;;
7539;SDS011;3811;49.006;12.076;2023-04-30T07:21:05;8.37;;;7.47;;
7539;SDS011;3811;49.006;12.076;2023-04-30T07:23:32;10.03;;;7.37;;
7539;SDS011;3811;49.006;12.076;2023-04-30T07:25:59;7.87;;;6.83;;
7539;SDS011;3811;49.006;12.076;2023-04-30T07:28:28;8.37;;;7.40;;
7539;SDS011;3811;49.006;12.076;2023-04-30T07:30:55;7.80;;;6.77;;
7539;SDS011;3811;49.006;12.076;2023-04-30T07:33:23;7.43;;;6.73;;
7539;SDS011;3811;49.006;12.076;2023-04-30T07:35:50;7.50;;;6.80;;
7539;SDS011;3811;49.006;12.076;2023-04-30T07:38:20;7.70;;;6.90;;
7539;SDS011;3811;49.006;12.076;2023-04-30T07:40:48;7.30;;;6.60;;
7539;SDS011;3811;49.006;12.076;2023-04-30T07:43:15;8.40;;;7.50;;
7539;SDS011;3811;49.006;12.076;2023-04-30T07:45:43;7.90;;;7.13;;
7539;SDS011;3811;49.006;12.076;2023-04-30T07:48:13;9.27;;;7.03;;
7539;SDS011;3811;49.006;12.076;2023-04-30T07:50:41;7.70;;;6.83;;
7539;SDS011;3811;49.006;12.076;2023-04-30T07:53:08;9.20;;;7.20;;
7539;SDS011;3811;49.006;12.076;2023-04-30T07:55:35;6.90;;;6.27;;
7539;SDS011;3811;49.006;12.076;2023-04-30T07:58:03;7.30;;;6.60;;
7539;SDS011;3811;49.006;12.076;2023-04-30T08:00:31;8.30;;;6.67;;
7539;SDS011;3811;49.006;12.076;2023-04-30T08:02:59;7.17;;;6.57;;
7539;SDS011;3811;49.006;12.076;2023-04-30T08:05:26;7.60;;;6.67;;
7539;SDS011;3811;49.006;12.076;2023-04-30T08:07:54;6.90;;;6.20;;
7539;SDS011;3811;49.006;12.076;2023-04-30T08:10:21;7.50;;;6.30;;
7539;SDS011;3811;49.006;12.076;2023-04-30T08:12:49;6.53;;;5.90;;
7539;SDS011;3811;49.006;12.076;2023-04-30T08:15:17;8.00;;;6.63;;
7539;SDS011;3811;49.006;12.076;2023-04-30T08:17:45;6.73;;;6.03;;
7539;SDS011;3811;49.006;12.076;2023-04-30T08:20:14;7.33;;;5.57;;
7539;SDS011;3811;49.006;12.076;2023-04-30T08:22:41;7.83;;;5.70;;
7539;SDS011;3811;49.006;12.076;2023-04-30T08:25:09;6.73;;;6.03;;
7539;SDS011;3811;49.006;12.076;2023-04-30T08:27:36;5.93;;;5.40;;
7539;SDS011;3811;49.006;12.076;2023-04-30T08:30:04;5.47;;;4.97;;
7539;SDS011;3811;49.006;12.076;2023-04-30T08:32:32;10.53;;;5.10;;
7539;SDS011;3811;49.006;12.076;2023-04-30T08:35:00;5.80;;;5.30;;
7539;SDS011;3811;49.006;12.076;2023-04-30T08:37:29;8.03;;;4.90;;
7539;SDS011;3811;49.006;12.076;2023-04-30T08:39:56;5.77;;;5.17;;
7539;SDS011;3811;49.006;12.076;2023-04-30T08:42:24;6.00;;;5.50;;
7539;SDS011;3811;49.006;12.076;2023-04-30T08:44:55;6.13;;;5.13;;
7539;SDS011;3811;49.006;12.076;2023-04-30T08:47:23;5.63;;;5.13;;
7539;SDS011;3811;49.006;12.076;2023-04-30T08:49:51;5.83;;;5.33;;
7539;SDS011;3811;49.006;12.076;2023-04-30T08:52:18;5.93;;;5.40;;
7539;SDS011;3811;49.006;12.076;2023-04-30T08:54:47;5.57;;;5.07;;
7539;SDS011;3811;49.006;12.076;2023-04-30T08:57:18;5.20;;;4.70;;
7539;SDS011;3811;49.006;12.076;2023-04-30T08:59:45;5.67;;;5.10;;
7539;SDS011;3811;49.006;12.076;2023-04-30T09:02:12;5.33;;;4.83;;
7539;SDS011;3811;49.006;12.076;2023-04-30T09:04:40;5.73;;;5.10;;
7539;SDS011;3811;49.006;12.076;2023-04-30T09:07:07;7.17;;;5.70;;
7539;SDS011;3811;49.006;12.076;2023-04-30T09:09:36;5.10;;;4.70;;
7539;SDS011;3811;49.006;12.076;2023-04-30T09:12:15;6.27;;;4.57;;
7539;SDS011;3811;49.006;12.076;2023-04-30T09:14:56;4.83;;;4.30;;
7539;SDS011;3811;49.006;12.076;2023-04-30T09:17:24;4.87;;;4.47;;
7539;SDS011;3811;49.006;12.076;2023-04-30T09:19:52;4.87;;;4.40;;
7539;SDS011;3811;49.006;12.076;2023-04-30T09:22:19;6.13;;;4.80;;
7539;SDS011;3811;49.006;12.076;2023-04-30T09:24:48;5.33;;;4.47;;
7539;SDS011;3811;49.006;12.076;2023-04-30T09:27:18;5.47;;;5.00;;
7539;SDS011;3811;49.006;12.076;2023-04-30T09:29:46;6.00;;;4.53;;
7539;SDS011;3811;49.006;12.076;2023-04-30T09:32:13;6.83;;;4.23;;
7539;SDS011;3811;49.006;12.076;2023-04-30T09:34:40;4.80;;;4.40;;
7539;SDS011;3811;49.006;12.076;2023-04-30T09:37:08;4.53;;;4.13;;
7539;SDS011;3811;49.006;12.076;2023-04-30T09:42:22;4.57;;;4.17;;
7539;SDS011;3811;49.006;12.076;2023-04-30T09:44:49;4.47;;;4.00;;
7539;SDS011;3811;49.006;12.076;2023-04-30T09:47:21;5.00;;;4.50;;
7539;SDS011;3811;49.006;12.076;2023-04-30T09:49:49;5.10;;;4.13;;
7539;SDS011;3811;49.006;12.076;2023-04-30T09:52:16;4.43;;;4.10;;
7539;SDS011;3811;49.006;12.076;2023-04-30T09:54:44;4.70;;;4.30;;
7539;SDS011;3811;49.006;12.076;2023-04-30T09:57:12;5.03;;;4.47;;
7539;SDS011;3811;49.006;12.076;2023-04-30T09:59:42;6.10;;;4.63;;
7539;SDS011;3811;49.006;12.076;2023-04-30T10:02:11;5.63;;;4.10;;
7539;SDS011;3811;49.006;12.076;2023-04-30T10:04:40;5.37;;;4.60;;
7539;SDS011;3811;49.006;12.076;2023-04-30T10:07:09;4.50;;;4.10;;
7539;SDS011;3811;49.006;12.076;2023-04-30T10:09:41;4.60;;;4.20;;
7539;SDS011;3811;49.006;12.076;2023-04-30T10:12:12;5.57;;;3.87;;
7539;SDS011;3811;49.006;12.076;2023-04-30T10:14:44;3.70;;;3.40;;
7539;SDS011;3811;49.006;12.076;2023-04-30T10:17:15;3.80;;;3.50;;
7539;SDS011;3811;49.006;12.076;2023-04-30T10:19:45;3.70;;;3.30;;
7539;SDS011;3811;49.006;12.076;2023-04-30T10:22:15;3.57;;;3.27;;
7539;SDS011;3811;49.006;12.076;2023-04-30T10:24:42;4.43;;;3.50;;
7539;SDS011;3811;49.006;12.076;2023-04-30T10:27:11;3.83;;;3.40;;
7539;SDS011;3811;49.006;12.076;2023-04-30T10:29:38;4.37;;;3.97;;
7539;SDS011;3811;49.006;12.076;2023-04-30T10:32:07;4.20;;;3.80;;
7539;SDS011;3811;49.006;12.076;2023-04-30T10:34:37;2.83;;;2.63;;
7539;SDS011;3811;49.006;12.076;2023-04-30T10:37:13;3.20;;;3.00;;
7539;SDS011;3811;49.006;12.076;2023-04-30T10:39:46;3.73;;;3.13;;
7539;SDS011;3811;49.006;12.076;2023-04-30T10:42:13;4.80;;;4.40;;
7539;SDS011;3811;49.006;12.076;2023-04-30T10:44:41;4.30;;;3.90;;
7539;SDS011;3811;49.006;12.076;2023-04-30T10:47:10;5.50;;;5.00;;
7539;SDS011;3811;49.006;12.076;2023-04-30T10:49:37;4.23;;;3.83;;
7539;SDS011;3811;49.006;12.076;2023-04-30T10:52:09;3.87;;;3.10;;
7539;SDS011;3811;49.006;12.076;2023-04-30T10:54:36;3.33;;;2.93;;
7539;SDS011;3811;49.006;12.076;2023-04-30T10:57:08;4.70;;;4.30;;
7539;SDS011;3811;49.006;12.076;2023-04-30T10:59:40;5.00;;;4.43;;
7539;SDS011;3811;49.006;12.076;2023-04-30T11:02:12;6.93;;;5.67;;
7539;SDS011;3811;49.006;12.076;2023-04-30T11:07:34;5.30;;;4.90;;
7539;SDS011;3811;49.006;12.076;2023-04-30T11:10:01;4.43;;;3.97;;
7539;SDS011;3811;49.006;12.076;2023-04-30T11:12:28;4.37;;;4.00;;
7539;SDS011;3811;49.006;12.076;2023-04-30T11:14:59;4.03;;;3.70;;
7539;SDS011;3811;49.006;12.076;2023-04-30T11:17:28;4.10;;;3.80;;
7539;SDS011;3811;49.006;12.076;2023-04-30T11:19:57;3.60;;;3.30;;
7539;SDS011;3811;49.006;12.076;2023-04-30T11:22:26;3.90;;;3.60;;
7539;SDS011;3811;49.006;12.076;2023-04-30T11:25:01;4.20;;;3.13;;
7539;SDS011;3811;49.006;12.076;2023-04-30T11:27:30;3.50;;;3.30;;
7539;SDS011;3811;49.006;12.076;2023-04-30T11:29:59;4.35;;;3.95;;
7539;SDS011;3811;49.006;12.076;2023-04-30T11:32:32;4.43;;;3.50;;
7539;SDS011;3811;49.006;12.076;2023-04-30T11:35:00;3.67;;;3.38;;
7539;SDS011;3811;49.006;12.076;2023-04-30T11:37:31;3.40;;;3.15;;
7539;SDS011;3811;49.006;12.076;2023-04-30T11:39:59;3.58;;;3.28;;
7539;SDS011;3811;49.006;12.076;2023-04-30T11:42:28;3.95;;;3.65;;
7539;SDS011;3811;49.006;12.076;2023-04-30T11:45:06;3.55;;;3.35;;
7539;SDS011;3811;49.006;12.076;2023-04-30T11:47:42;3.70;;;3.40;;
7539;SDS011;3811;49.006;12.076;2023-04-30T11:50:10;3.30;;;3.10;;
7539;SDS011;3811;49.006;12.076;2023-04-30T11:52:37;3.53;;;2.97;;
7539;SDS011;3811;49.006;12.076;2023-04-30T11:55:06;3.60;;;3.40;;
7539;SDS011;3811;49.006;12.076;2023-04-30T11:57:38;3.20;;;3.00;;
7539;SDS011;3811;49.006;12.076;2023-04-30T12:00:10;3.00;;;2.80;;
7539;SDS011;3811;49.006;12.076;2023-04-30T12:02:37;3.13;;;2.88;;
7539;SDS011;3811;49.006;12.076;2023-04-30T12:05:12;3.15;;;2.95;;
7539;SDS011;3811;49.006;12.076;2023-04-30T12:07:47;2.88;;;2.65;;
7539;SDS011;3811;49.006;12.076;2023-04-30T12:10:15;5.18;;;3.33;;
7539;SDS011;3811;49.006;12.076;2023-04-30T12:12:44;3.20;;;2.90;;
7539;SDS011;3811;49.006;12.076;2023-04-30T12:15:12;3.08;;;2.88;;
7539;SDS011;3811;49.006;12.076;2023-04-30T12:17:40;3.40;;;3.20;;
7539;SDS011;3811;49.006;12.076;2023-04-30T12:20:09;2.90;;;2.70;;
7539;SDS011;3811;49.006;12.076;2023-04-30T12:22:39;3.00;;;2.80;;
7539;SDS011;3811;49.006;12.076;2023-04-30T12:25:06;3.08;;;2.80;;
7539;SDS011;3811;49.006;12.076;2023-04-30T12:27:38;2.85;;;2.65;;
7539;SDS011;3811;49.006;12.076;2023-04-30T12:30:06;4.22;;;2.67;;
7539;SDS011;3811;49.006;12.076;2023-04-30T12:32:37;3.17;;;2.90;;
7539;SDS011;3811;49.006;12.076;2023-04-30T12:35:05;3.97;;;2.42;;
7539;SDS011;3811;49.006;12.076;2023-04-30T12:37:35;3.13;;;2.92;;
7539;SDS011;3811;49.006;12.076;2023-04-30T12:40:11;3.08;;;2.85;;
7539;SDS011;3811;49.006;12.076;2023-04-30T12:42:40;2.80;;;2.60;;
7539;SDS011;3811;49.006;12.076;2023-04-30T12:45:08;2.83;;;2.63;;
7539;SDS011;3811;49.006;12.076;2023-04-30T12:47:37;3.10;;;2.90;;
7539;SDS011;3811;49.006;12.076;2023-04-30T12:50:07;3.00;;;2.77;;
7539;SDS011;3811;49.006;12.076;2023-04-30T12:52:34;2.70;;;2.60;;
7539;SDS011;3811;49.006;12.076;2023-04-30T12:55:14;3.35;;;2.72;;
7539;SDS011;3811;49.006;12.076;2023-04-30T13:00:48;3.10;;;2.83;;
7539;SDS011;3811;49.006;12.076;2023-04-30T13:03:17;3.50;;;2.90;;
7539;SDS011;3811;49.006;12.076;2023-04-30T13:05:46;4.43;;;3.17;;
7539;SDS011;3811;49.006;12.076;2023-04-30T13:08:14;3.70;;;2.93;;
7539;SDS011;3811;49.006;12.076;2023-04-30T13:10:43;2.40;;;2.30;;
7539;SDS011;3811;49.006;12.076;2023-04-30T13:13:11;2.57;;;2.43;;
7539;SDS011;3811;49.006;12.076;2023-04-30T13:15:39;2.90;;;2.70;;
7539;SDS011;3811;49.006;12.076;2023-04-30T13:18:06;2.67;;;2.57;;
7539;SDS011;3811;49.006;12.076;2023-04-30T13:20:33;2.97;;;2.70;;
7539;SDS011;3811;49.006;12.076;2023-04-30T13:23:01;2.80;;;2.60;;
7539;SDS011;3811;49.006;12.076;2023-04-30T13:25:28;2.90;;;2.70;;
7539;SDS011;3811;49.006;12.076;2023-04-30T13:28:09;2.93;;;2.70;;
7539;SDS011;3811;49.006;12.076;2023-04-30T13:30:36;2.73;;;2.57;;
7539;SDS011;3811;49.006;12.076;2023-04-30T13:33:05;3.47;;;3.17;;
7539;SDS011;3811;49.006;12.076;2023-04-30T13:35:33;2.70;;;2.50;;
7539;SDS011;3811;49.006;12.076;2023-04-30T13:38:02;2.60;;;2.40;;
7539;SDS011;3811;49.006;12.076;2023-04-30T13:40:29;2.87;;;2.50;;
7539;SDS011;3811;49.006;12.076;2023-04-30T13:42:56;10.07;;;2.77;;
7539;SDS011;3811;49.006;12.076;2023-04-30T13:45:25;2.60;;;2.40;;
7539;SDS011;3811;49.006;12.076;2023-04-30T13:47:52;6.93;;;2.93;;
7539;SDS011;3811;49.006;12.076;2023-04-30T13:50:19;3.13;;;2.87;;
7539;SDS011;3811;49.006;12.076;2023-04-30T13:52:47;3.00;;;2.77;;
7539;SDS011;3811;49.006;12.076;2023-04-30T13:55:14;2.77;;;2.57;;
7539;SDS011;3811;49.006;12.076;2023-04-30T13:57:41;3.23;;;2.60;;
7539;SDS011;3811;49.006;12.076;2023-04-30T14:00:09;4.57;;;2.90;;
7539;SDS011;3811;49.006;12.076;2023-04-30T14:02:38;2.43;;;2.23;;
7539;SDS011;3811;49.006;12.076;2023-04-30T14:05:06;2.60;;;2.40;;
7539;SDS011;3811;49.006;12.076;2023-04-30T14:07:34;2.58;;;2.45;;
7539;SDS011;3811;49.006;12.076;2023-04-30T14:10:01;2.38;;;2.28;;
7539;SDS011;3811;49.006;12.076;2023-04-30T14:12:28;2.60;;;2.40;;
7539;SDS011;3811;49.006;12.076;2023-04-30T14:14:56;2.60;;;2.50;;
7539;SDS011;3811;49.006;12.076;2023-04-30T14:17:23;2.67;;;2.47;;
7539;SDS011;3811;49.006;12.076;2023-04-30T14:19:53;2.37;;;2.17;;
7539;SDS011;3811;49.006;12.076;2023-04-30T14:22:20;2.50;;;2.30;;
7539;SDS011;3811;49.006;12.076;2023-04-30T14:24:48;2.47;;;2.37;;
7539;SDS011;3811;49.006;12.076;2023-04-30T14:27:15;2.37;;;2.27;;
7539;SDS011;3811;49.006;12.076;2023-04-30T14:29:43;2.50;;;2.30;;
7539;SDS011;3811;49.006;12.076;2023-04-30T14:32:11;2.83;;;2.63;;
7539;SDS011;3811;49.006;12.076;2023-04-30T14:34:39;3.33;;;2.80;;
7539;SDS011;3811;49.006;12.076;2023-04-30T14:37:07;3.10;;;2.80;;
7539;SDS011;3811;49.006;12.076;2023-04-30T14:39:35;2.93;;;2.37;;
7539;SDS011;3811;49.006;12.076;2023-04-30T14:42:02;2.43;;;2.20;;
7539;SDS011;3811;49.006;12.076;2023-04-30T14:44:30;2.20;;;2.10;;
7539;SDS011;3811;49.006;12.076;2023-04-30T14:46:57;2.70;;;2.50;;
7539;SDS011;3811;49.006;12.076;2023-04-30T14:49:24;2.70;;;2.50;;
7539;SDS011;3811;49.006;12.076;2023-04-30T14:51:52;2.20;;;2.10;;
7539;SDS011;3811;49.006;12.076;2023-04-30T14:54:20;2.40;;;2.20;;
7539;SDS011;3811;49.006;12.076;2023-04-30T14:56:47;3.00;;;2.80;;
7539;SDS011;3811;49.006;12.076;2023-04-30T14:59:15;2.90;;;2.70;;
7539;SDS011;3811;49.006;12.076;2023-04-30T15:01:43;2.85;;;2.50;;
7539;SDS011;3811;49.006;12.076;2023-04-30T15:04:10;2.47;;;2.28;;
7539;SDS011;3811;49.006;12.076;2023-04-30T15:06:37;2.17;;;2.08;;
7539;SDS011;3811;49.006;12.076;2023-04-30T15:09:05;2.60;;;2.50;;
7539;SDS011;3811;49.006;12.076;2023-04-30T15:11:33;3.10;;;2.90;;
7539;SDS011;3811;49.006;12.076;2023-04-30T15:14:00;3.33;;;3.13;;
7539;SDS011;3811;49.006;12.076;2023-04-30T15:16:28;4.37;;;2.53;;
7539;SDS011;3811;49.006;12.076;2023-04-30T15:18:55;2.90;;;2.70;;
7539;SDS011;3811;49.006;12.076;2023-04-30T15:21:23;2.57;;;2.47;;